createdAt,value
2023-03-03T00:01:46.842Z,13.57
2023-03-03T00:04:14.316Z,14.30
2023-03-03T00:06:41.646Z,13.20
2023-03-03T00:09:09.122Z,15.43
2023-03-03T00:11:36.609Z,15.07
2023-03-03T00:14:03.926Z,14.33
2023-03-03T00:16:38.631Z,13.93
2023-03-03T00:19:20.541Z,14.40
2023-03-03T00:21:48.999Z,15.97
2023-03-03T00:24:21.232Z,14.57
2023-03-03T00:26:57.397Z,15.17
2023-03-03T00:29:32.514Z,15.00
2023-03-03T00:32:20.670Z,15.10
2023-03-03T00:34:49.640Z,15.27
2023-03-03T00:37:31.564Z,17.37
2023-03-03T00:40:02.384Z,17.17
2023-03-03T00:42:30.489Z,16.23
2023-03-03T00:45:00.338Z,17.40
2023-03-03T00:47:31.832Z,18.27
2023-03-03T00:50:06.833Z,18.03
2023-03-03T00:52:36.796Z,17.67
2023-03-03T00:55:04.902Z,19.10
2023-03-03T00:57:33.481Z,17.87
2023-03-03T01:00:03.704Z,18.40
2023-03-03T01:02:33.129Z,17.87
2023-03-03T01:05:01.035Z,17.93
2023-03-03T01:07:29.009Z,17.50
2023-03-03T01:09:56.688Z,17.23
2023-03-03T01:12:32.390Z,18.70
2023-03-03T01:15:01.573Z,18.63
2023-03-03T01:17:30.560Z,18.50
2023-03-03T01:19:58.613Z,18.87
2023-03-03T01:22:27.240Z,18.53
2023-03-03T01:24:59.225Z,19.60
2023-03-03T01:27:30.450Z,20.27
2023-03-03T01:29:59.676Z,22.17
2023-03-03T01:32:27.893Z,19.07
2023-03-03T01:34:55.482Z,21.33
2023-03-03T01:37:23.237Z,19.20
2023-03-03T01:39:52.776Z,21.30
2023-03-03T01:42:20.366Z,19.73
2023-03-03T01:44:48.300Z,20.30
2023-03-03T01:47:21.830Z,20.50
2023-03-03T01:49:53.747Z,21.77
2023-03-03T01:52:33.639Z,20.63
2023-03-03T01:55:04.433Z,20.10
2023-03-03T01:57:33.816Z,20.60
2023-03-03T02:00:03.439Z,20.77
2023-03-03T02:02:40.969Z,21.27
2023-03-03T02:05:08.799Z,20.10
2023-03-03T02:07:36.539Z,21.00
2023-03-03T02:10:08.622Z,19.67
2023-03-03T02:12:55.758Z,21.03
2023-03-03T02:15:32.606Z,20.43
2023-03-03T02:18:03.093Z,20.80
2023-03-03T02:20:33.790Z,20.70
2023-03-03T02:23:09.852Z,22.40
2023-03-03T02:25:58.632Z,21.43
2023-03-03T02:28:30.368Z,20.03
2023-03-03T02:31:02.094Z,21.20
2023-03-03T02:33:30.184Z,19.47
2023-03-03T02:35:57.770Z,19.93
2023-03-03T02:38:25.196Z,20.90
2023-03-03T02:41:01.933Z,22.10
2023-03-03T02:43:35.592Z,21.87
2023-03-03T02:46:03.686Z,21.40
2023-03-03T02:48:31.511Z,21.90
2023-03-03T02:50:59.792Z,23.53
2023-03-03T02:53:27.486Z,23.87
2023-03-03T02:55:55.095Z,21.10
2023-03-03T02:58:23.495Z,21.90
2023-03-03T03:00:51.122Z,21.53
2023-03-03T03:03:22.995Z,21.00
2023-03-03T03:05:50.939Z,21.70
2023-03-03T03:08:21.048Z,23.07
2023-03-03T03:10:49.262Z,24.10
2023-03-03T03:13:20.164Z,24.00
2023-03-03T03:15:48.386Z,23.20
2023-03-03T03:18:16.890Z,25.40
2023-03-03T03:20:46.962Z,25.60
2023-03-03T03:23:16.188Z,22.50
2023-03-03T03:25:46.847Z,23.63
2023-03-03T03:28:21.896Z,26.03
2023-03-03T03:30:51.797Z,23.10
2023-03-03T03:33:22.172Z,23.60
2023-03-03T03:35:50.547Z,23.23
2023-03-03T03:38:17.925Z,22.73
2023-03-03T03:40:45.410Z,24.67
2023-03-03T03:43:12.648Z,25.93
2023-03-03T03:45:42.424Z,24.70
2023-03-03T03:48:09.956Z,26.50
2023-03-03T03:50:37.624Z,24.80
2023-03-03T03:53:06.107Z,25.93
2023-03-03T03:55:34.273Z,24.30
2023-03-03T03:58:01.570Z,24.03
2023-03-03T04:00:28.839Z,26.00
2023-03-03T04:03:00.676Z,26.00
2023-03-03T04:05:28.549Z,24.57
2023-03-03T04:07:56.455Z,26.60
2023-03-03T04:10:23.706Z,24.30
2023-03-03T04:12:50.920Z,25.67
2023-03-03T04:15:18.455Z,27.30
2023-03-03T04:17:45.741Z,27.10
2023-03-03T04:20:15.254Z,27.80
2023-03-03T04:22:44.617Z,24.37
2023-03-03T04:25:15.664Z,27.37
2023-03-03T04:27:44.372Z,27.57
2023-03-03T04:30:13.977Z,29.13
2023-03-03T04:32:41.298Z,25.90
2023-03-03T04:35:11.764Z,26.97
2023-03-03T04:37:41.497Z,26.27
2023-03-03T04:40:11.139Z,27.57
2023-03-03T04:42:39.677Z,28.80
2023-03-03T04:45:08.979Z,26.37
2023-03-03T04:47:36.778Z,24.27
2023-03-03T04:50:04.894Z,24.97
2023-03-03T04:52:33.531Z,24.50
2023-03-03T04:55:00.915Z,27.27
2023-03-03T04:57:28.509Z,27.27
2023-03-03T04:59:56.294Z,27.50
2023-03-03T05:02:23.468Z,28.40
2023-03-03T05:04:51.045Z,27.00
2023-03-03T05:07:22.158Z,26.00
2023-03-03T05:09:52.877Z,27.17
2023-03-03T05:12:20.044Z,25.90
2023-03-03T05:14:47.638Z,27.03
2023-03-03T05:17:15.011Z,28.13
2023-03-03T05:19:42.184Z,27.27
2023-03-03T05:22:10.236Z,29.07
2023-03-03T05:24:37.532Z,27.60
2023-03-03T05:27:04.709Z,30.60
2023-03-03T05:29:33.386Z,28.93
2023-03-03T05:32:01.529Z,28.20
2023-03-03T05:34:28.789Z,27.93
2023-03-03T05:36:55.950Z,28.13
2023-03-03T05:39:23.372Z,28.53
2023-03-03T05:41:51.061Z,29.60
2023-03-03T05:44:20.524Z,27.17
2023-03-03T05:46:47.922Z,30.07
2023-03-03T05:49:15.165Z,28.37
2023-03-03T05:51:44.491Z,28.00
2023-03-03T05:54:14.009Z,30.60
2023-03-03T05:56:41.222Z,29.80
2023-03-03T05:59:08.629Z,30.33
2023-03-03T06:01:35.826Z,29.97
2023-03-03T06:04:03.064Z,28.53
2023-03-03T06:06:30.372Z,29.87
2023-03-03T06:08:57.482Z,28.27
2023-03-03T06:11:24.722Z,28.83
2023-03-03T06:13:52.012Z,29.27
2023-03-03T06:16:19.331Z,29.50
2023-03-03T06:18:47.053Z,30.50
2023-03-03T06:21:14.215Z,28.77
2023-03-03T06:23:41.962Z,29.87
2023-03-03T06:26:09.410Z,28.10
2023-03-03T06:28:36.677Z,28.33
2023-03-03T06:31:04.204Z,30.43
2023-03-03T06:33:31.380Z,28.63
2023-03-03T06:35:58.756Z,27.47
2023-03-03T06:38:26.012Z,26.30
2023-03-03T06:40:53.425Z,27.93
2023-03-03T06:43:20.617Z,29.57
2023-03-03T06:45:47.852Z,28.73
2023-03-03T06:48:15.028Z,28.47
2023-03-03T06:50:42.439Z,29.83
2023-03-03T06:53:12.712Z,28.23
2023-03-03T06:55:39.940Z,29.07
2023-03-03T06:58:14.882Z,28.23
2023-03-03T07:00:46.177Z,28.73
2023-03-03T07:03:17.373Z,28.67
2023-03-03T07:05:45.070Z,27.63
2023-03-03T07:08:20.250Z,29.40
2023-03-03T07:10:47.818Z,28.83
2023-03-03T07:13:19.486Z,28.63
2023-03-03T07:15:47.523Z,27.80
2023-03-03T07:18:45.525Z,28.10
2023-03-03T07:21:23.464Z,26.60
2023-03-03T07:23:51.760Z,27.60
2023-03-03T07:26:24.831Z,28.80
2023-03-03T07:28:57.777Z,27.70
2023-03-03T07:31:28.266Z,28.00
2023-03-03T07:33:55.990Z,27.70
2023-03-03T07:36:31.374Z,27.77
2023-03-03T07:39:00.279Z,24.77
2023-03-03T07:41:28.795Z,27.03
2023-03-03T07:43:58.269Z,26.77
2023-03-03T07:46:37.640Z,27.47
2023-03-03T07:49:13.519Z,29.23
2023-03-03T07:51:44.076Z,27.17
2023-03-03T07:54:29.914Z,25.53
2023-03-03T07:56:59.544Z,26.83
2023-03-03T07:59:26.806Z,27.70
2023-03-03T08:02:00.462Z,28.30
2023-03-03T08:04:42.821Z,26.53
2023-03-03T08:07:18.023Z,24.80
2023-03-03T08:09:59.392Z,26.73
2023-03-03T08:12:29.680Z,28.37
2023-03-03T08:14:57.417Z,27.47
2023-03-03T08:17:26.289Z,26.80
2023-03-03T08:19:54.488Z,27.27
2023-03-03T08:22:30.252Z,25.60
2023-03-03T08:24:57.438Z,26.50
2023-03-03T08:27:24.618Z,26.20
2023-03-03T08:29:51.728Z,25.67
2023-03-03T08:32:19.988Z,26.23
2023-03-03T08:34:47.319Z,25.77
2023-03-03T08:37:14.491Z,27.67
2023-03-03T08:39:41.721Z,23.60
2023-03-03T08:42:08.877Z,23.90
2023-03-03T08:44:36.056Z,27.30
2023-03-03T08:47:04.524Z,26.47
2023-03-03T08:49:31.732Z,26.93
2023-03-03T08:52:00.647Z,25.57
2023-03-03T08:54:27.819Z,27.67
2023-03-03T08:56:54.995Z,24.97
2023-03-03T08:59:22.319Z,23.70
2023-03-03T09:01:49.910Z,25.47
2023-03-03T09:04:18.146Z,25.50
2023-03-03T09:06:45.365Z,24.37
2023-03-03T09:09:13.872Z,24.70
2023-03-03T09:11:43.798Z,23.53
2023-03-03T09:14:12.303Z,24.40
2023-03-03T09:16:41.361Z,25.83
2023-03-03T09:19:21.912Z,23.10
2023-03-03T09:21:49.180Z,23.47
2023-03-03T09:24:24.314Z,24.17
2023-03-03T09:26:53.018Z,23.57
2023-03-03T09:29:29.006Z,23.10
2023-03-03T09:31:58.624Z,22.43
2023-03-03T09:34:42.489Z,22.20
2023-03-03T09:37:19.713Z,21.23
2023-03-03T09:39:49.198Z,23.43
2023-03-03T09:42:22.580Z,23.63
2023-03-03T09:44:59.470Z,22.40
2023-03-03T09:47:40.150Z,20.23
2023-03-03T09:50:21.012Z,21.40
2023-03-03T09:53:08.541Z,20.83
2023-03-03T09:55:40.734Z,20.60
2023-03-03T09:58:13.822Z,21.40
2023-03-03T10:00:56.107Z,18.63
2023-03-03T10:03:36.501Z,20.13
2023-03-03T10:06:03.647Z,21.20
2023-03-03T10:08:49.787Z,18.00
2023-03-03T10:11:16.941Z,19.77
2023-03-03T10:13:53.190Z,17.10
2023-03-03T10:16:39.195Z,17.53
2023-03-03T10:19:34.126Z,16.87
2023-03-03T10:22:31.362Z,16.30
2023-03-03T10:25:11.124Z,16.93
2023-03-03T10:27:46.831Z,16.57
2023-03-03T10:30:33.142Z,16.60
2023-03-03T10:33:12.892Z,16.63
2023-03-03T10:36:06.599Z,16.50
2023-03-03T10:38:55.478Z,16.40
2023-03-03T10:41:33.945Z,15.40
2023-03-03T10:44:09.575Z,16.93
2023-03-03T10:46:55.666Z,14.43
2023-03-03T10:49:39.307Z,14.73
2023-03-03T10:52:16.963Z,14.60
2023-03-03T10:54:47.111Z,14.00
2023-03-03T10:57:23.606Z,14.23
2023-03-03T11:00:00.886Z,13.93
2023-03-03T11:02:36.910Z,14.77
2023-03-03T11:05:10.297Z,13.60
2023-03-03T11:07:46.981Z,13.30
2023-03-03T11:10:27.961Z,13.53
2023-03-03T11:13:03.324Z,13.70
2023-03-03T11:15:30.498Z,14.40
2023-03-03T11:18:06.677Z,14.10
2023-03-03T11:20:39.321Z,14.40
2023-03-03T11:23:20.350Z,13.47
2023-03-03T11:25:55.637Z,13.20
2023-03-03T11:28:29.900Z,13.10
2023-03-03T11:31:11.747Z,12.60
2023-03-03T11:33:59.914Z,13.70
2023-03-03T11:36:34.983Z,15.20
2023-03-03T11:39:08.265Z,13.20
2023-03-03T11:41:43.550Z,15.10
2023-03-03T11:44:14.682Z,13.97
2023-03-03T11:46:50.585Z,14.87
2023-03-03T11:49:23.868Z,14.00
2023-03-03T11:51:59.002Z,15.20
2023-03-03T11:54:43.357Z,13.43
2023-03-03T11:57:16.498Z,14.23
2023-03-03T11:59:48.684Z,11.90
2023-03-03T12:02:32.083Z,13.43
2023-03-03T12:05:18.114Z,13.27
2023-03-03T12:07:51.489Z,14.00
2023-03-03T12:10:31.103Z,14.20
2023-03-03T12:13:16.112Z,12.97
2023-03-03T12:15:50.894Z,12.77
2023-03-03T12:18:23.824Z,13.37
2023-03-03T12:21:00.127Z,11.90
2023-03-03T12:23:46.712Z,11.07
2023-03-03T12:26:19.979Z,12.30
2023-03-03T12:28:52.989Z,13.60
2023-03-03T12:31:24.722Z,12.87
2023-03-03T12:33:56.753Z,17.27
2023-03-03T12:36:35.578Z,12.47
2023-03-03T12:39:09.234Z,12.50
2023-03-03T12:41:41.980Z,12.80
2023-03-03T12:44:37.140Z,13.13
2023-03-03T12:47:24.859Z,12.50
2023-03-03T12:50:10.292Z,11.30
2023-03-03T12:53:09.985Z,11.37
2023-03-03T12:55:46.079Z,13.67
2023-03-03T12:58:32.431Z,11.90
2023-03-03T13:01:02.735Z,12.90
2023-03-03T13:03:55.794Z,11.50
2023-03-03T13:06:43.935Z,26.27
2023-03-03T13:09:20.526Z,32.57
2023-03-03T13:11:48.207Z,30.87
2023-03-03T13:14:24.874Z,28.80
2023-03-03T13:17:02.473Z,29.13
2023-03-03T13:19:41.530Z,24.17
2023-03-03T13:22:11.924Z,27.97
2023-03-03T13:24:41.681Z,24.77
2023-03-03T13:27:14.477Z,23.37
2023-03-03T13:29:45.191Z,18.37
2023-03-03T13:32:18.259Z,17.70
2023-03-03T13:34:58.191Z,16.80
2023-03-03T13:37:30.371Z,15.90
2023-03-03T13:40:03.549Z,14.93
2023-03-03T13:42:34.681Z,12.90
2023-03-03T13:45:07.614Z,12.37
2023-03-03T13:47:37.906Z,14.00
2023-03-03T13:50:14.384Z,12.70
2023-03-03T13:52:54.214Z,11.30
2023-03-03T13:55:24.631Z,11.70
2023-03-03T13:58:05.857Z,11.10
2023-03-03T14:00:53.966Z,10.90
2023-03-03T14:03:21.605Z,11.63
2023-03-03T14:05:50.150Z,11.40
2023-03-03T14:08:37.224Z,12.60
2023-03-03T14:11:10.733Z,11.53
2023-03-03T14:13:47.148Z,10.60
2023-03-03T14:16:14.980Z,10.57
2023-03-03T14:18:54.807Z,9.77
2023-03-03T14:21:27.924Z,9.77
2023-03-03T14:24:10.650Z,9.90
2023-03-03T14:26:49.580Z,10.17
2023-03-03T14:29:27.470Z,10.33
2023-03-03T14:32:02.183Z,9.07
2023-03-03T14:34:41.183Z,9.50
2023-03-03T14:37:31.812Z,9.70
2023-03-03T14:40:02.305Z,9.47
2023-03-03T14:42:34.741Z,9.63
2023-03-03T14:45:04.652Z,9.37
2023-03-03T14:47:32.124Z,9.53
2023-03-03T14:50:00.446Z,10.30
2023-03-03T14:52:29.332Z,8.40
2023-03-03T14:55:01.784Z,9.83
2023-03-03T14:57:51.315Z,9.37
2023-03-03T15:00:20.006Z,9.20
2023-03-03T15:02:47.647Z,9.30
2023-03-03T15:05:31.620Z,9.00
2023-03-03T15:08:08.951Z,9.00
2023-03-03T15:10:41.580Z,9.30
2023-03-03T15:13:21.387Z,8.83
2023-03-03T15:16:01.017Z,9.47
2023-03-03T15:18:29.407Z,9.20
2023-03-03T15:21:05.595Z,8.67
2023-03-03T15:24:05.687Z,9.47
2023-03-03T15:26:39.020Z,9.23
2023-03-03T15:29:07.423Z,8.73
2023-03-03T15:31:35.254Z,8.83
2023-03-03T15:34:05.428Z,7.73
2023-03-03T15:36:40.601Z,7.80
2023-03-03T15:39:13.897Z,8.27
2023-03-03T15:42:00.229Z,7.87
2023-03-03T15:44:34.549Z,8.10
2023-03-03T15:47:18.078Z,7.80
2023-03-03T15:49:56.021Z,8.83
2023-03-03T15:52:32.037Z,7.30
2023-03-03T15:54:59.336Z,8.60
2023-03-03T15:57:40.589Z,8.23
2023-03-03T16:00:14.026Z,7.67
2023-03-03T16:02:58.717Z,8.07
2023-03-03T16:05:34.554Z,6.53
2023-03-03T16:08:05.192Z,7.33
2023-03-03T16:10:39.973Z,7.27
2023-03-03T16:13:13.248Z,6.93
2023-03-03T16:15:46.680Z,7.73
2023-03-03T16:18:24.935Z,6.83
2023-03-03T16:21:03.834Z,7.17
2023-03-03T16:23:48.267Z,6.93
2023-03-03T16:26:31.533Z,6.90
2023-03-03T16:29:09.194Z,7.40
2023-03-03T16:31:50.006Z,6.97
2023-03-03T16:34:31.801Z,6.90
2023-03-03T16:37:08.464Z,6.90
2023-03-03T16:39:52.111Z,8.50
2023-03-03T16:42:29.557Z,6.67
2023-03-03T16:45:15.653Z,7.73
2023-03-03T16:47:52.344Z,6.73
2023-03-03T16:50:26.312Z,6.43
2023-03-03T16:53:12.332Z,6.80
2023-03-03T16:55:46.044Z,7.13
2023-03-03T16:58:26.091Z,6.13
2023-03-03T17:00:58.131Z,8.53
2023-03-03T17:03:29.318Z,7.07
2023-03-03T17:06:02.665Z,7.40
2023-03-03T17:08:38.596Z,7.60
2023-03-03T17:11:18.048Z,8.07
2023-03-03T17:14:10.060Z,7.37
2023-03-03T17:16:52.288Z,6.90
2023-03-03T17:19:26.299Z,6.50
2023-03-03T17:22:12.291Z,6.80
2023-03-03T17:25:00.716Z,7.20
2023-03-03T17:27:44.287Z,6.33
2023-03-03T17:30:22.417Z,7.73
2023-03-03T17:33:12.450Z,7.40
2023-03-03T17:35:48.588Z,7.37
2023-03-03T17:38:24.919Z,8.20
2023-03-03T17:41:04.354Z,7.03
2023-03-03T17:43:35.652Z,8.40
2023-03-03T17:46:10.283Z,6.90
2023-03-03T17:48:53.184Z,7.10
2023-03-03T17:51:37.080Z,7.23
2023-03-03T17:54:24.873Z,7.20
2023-03-03T17:57:11.354Z,8.53
2023-03-03T17:59:48.536Z,9.17
2023-03-03T18:02:35.151Z,7.90
2023-03-03T18:05:19.469Z,8.00
2023-03-03T18:08:07.584Z,8.97
2023-03-03T18:10:57.800Z,9.07
2023-03-03T18:13:44.473Z,7.00
2023-03-03T18:16:12.640Z,8.13
2023-03-03T18:18:46.004Z,7.80
2023-03-03T18:21:17.657Z,7.20
2023-03-03T18:23:45.963Z,8.83
2023-03-03T18:26:31.459Z,7.80
2023-03-03T18:29:11.867Z,7.37
2023-03-03T18:32:05.526Z,7.13
2023-03-03T18:34:38.811Z,7.60
2023-03-03T18:37:24.844Z,7.57
2023-03-03T18:40:04.441Z,7.77
2023-03-03T18:42:37.390Z,7.10
2023-03-03T18:45:20.296Z,7.60
2023-03-03T18:48:07.780Z,9.10
2023-03-03T18:50:36.670Z,6.83
2023-03-03T18:53:14.896Z,8.00
2023-03-03T18:55:43.335Z,11.27
2023-03-03T18:58:16.662Z,8.67
2023-03-03T19:00:46.882Z,8.60
2023-03-03T19:03:32.131Z,8.50
2023-03-03T19:06:00.223Z,10.27
2023-03-03T19:08:51.178Z,7.97
2023-03-03T19:11:38.304Z,9.90
2023-03-03T19:14:14.746Z,11.23
2023-03-03T19:16:42.282Z,9.87
2023-03-03T19:19:20.470Z,9.20
2023-03-03T19:22:14.035Z,10.43
2023-03-03T19:24:41.168Z,9.83
2023-03-03T19:27:17.616Z,9.13
2023-03-03T19:29:44.854Z,8.23
2023-03-03T19:32:21.182Z,9.13
2023-03-03T19:35:07.383Z,8.90
2023-03-03T19:37:37.701Z,9.17
2023-03-03T19:40:17.802Z,8.30
2023-03-03T19:42:56.504Z,9.30
2023-03-03T19:45:40.732Z,8.50
2023-03-03T19:48:23.351Z,11.93
2023-03-03T19:51:10.428Z,7.50
2023-03-03T19:53:37.623Z,10.60
2023-03-03T19:56:10.931Z,8.30
2023-03-03T19:58:47.945Z,7.90
2023-03-03T20:01:15.172Z,7.70
2023-03-03T20:03:50.041Z,8.57
2023-03-03T20:06:27.122Z,9.50
2023-03-03T20:08:57.588Z,8.00
2023-03-03T20:11:47.762Z,8.70
2023-03-03T20:14:17.958Z,9.07
2023-03-03T20:16:48.171Z,10.23
2023-03-03T20:19:25.875Z,8.10
2023-03-03T20:22:08.834Z,7.80
2023-03-03T20:24:42.116Z,8.80
2023-03-03T20:27:28.251Z,8.17
2023-03-03T20:30:06.033Z,7.40
2023-03-03T20:32:44.775Z,8.47
2023-03-03T20:35:23.316Z,8.17
2023-03-03T20:38:02.841Z,8.33
2023-03-03T20:40:30.846Z,8.23
2023-03-03T20:43:27.471Z,9.77
2023-03-03T20:46:14.643Z,9.40
2023-03-03T20:48:53.805Z,9.90
2023-03-03T20:51:30.188Z,9.97
2023-03-03T20:54:05.108Z,9.27
2023-03-03T20:56:56.212Z,8.40
2023-03-03T20:59:37.696Z,8.73
2023-03-03T21:02:07.660Z,8.90
2023-03-03T21:04:36.137Z,8.40
2023-03-03T21:07:04.336Z,9.30
2023-03-03T21:09:39.261Z,8.60
2023-03-03T21:12:26.718Z,8.60
2023-03-03T21:15:04.767Z,8.80
2023-03-03T21:17:32.207Z,9.43
2023-03-03T21:20:18.735Z,10.57
2023-03-03T21:22:45.891Z,8.97
2023-03-03T21:25:34.132Z,8.70
2023-03-03T21:28:14.760Z,10.23
2023-03-03T21:31:03.915Z,8.90
2023-03-03T21:33:43.509Z,8.77
2023-03-03T21:36:13.235Z,9.23
2023-03-03T21:38:40.658Z,9.30
2023-03-03T21:41:08.931Z,9.27
2023-03-03T21:43:40.728Z,10.30
2023-03-03T21:46:08.058Z,10.10
2023-03-03T21:48:35.330Z,9.80
2023-03-03T21:51:02.753Z,10.77
2023-03-03T21:53:30.514Z,9.40
2023-03-03T21:55:57.653Z,8.70
2023-03-03T21:58:24.802Z,12.00
2023-03-03T22:00:51.952Z,8.07
2023-03-03T22:03:20.703Z,9.40
2023-03-03T22:05:51.262Z,9.70
2023-03-03T22:08:22.377Z,9.40
2023-03-03T22:10:56.037Z,9.70
2023-03-03T22:13:24.341Z,9.13
2023-03-03T22:15:51.649Z,8.60
2023-03-03T22:18:19.264Z,8.90
2023-03-03T22:20:47.135Z,9.53
2023-03-03T22:23:14.724Z,9.40
2023-03-03T22:25:42.351Z,9.87
2023-03-03T22:28:09.814Z,9.87
2023-03-03T22:30:37.459Z,10.40
2023-03-03T22:33:04.601Z,10.10
2023-03-03T22:35:31.828Z,11.70
2023-03-03T22:37:59.182Z,11.10
2023-03-03T22:40:26.796Z,11.87
2023-03-03T22:42:53.968Z,12.47
2023-03-03T22:45:21.124Z,10.23
2023-03-03T22:47:48.278Z,10.83
2023-03-03T22:50:16.726Z,12.23
2023-03-03T22:52:43.941Z,11.93
2023-03-03T22:55:11.197Z,9.93
2023-03-03T22:57:38.382Z,11.83
2023-03-03T23:00:07.458Z,10.97
2023-03-03T23:02:34.698Z,11.10
2023-03-03T23:05:07.710Z,11.83
2023-03-03T23:07:36.045Z,10.57
2023-03-03T23:10:04.112Z,10.97
2023-03-03T23:12:31.514Z,12.70
2023-03-03T23:14:58.765Z,13.20
2023-03-03T23:17:25.930Z,12.50
2023-03-03T23:19:53.165Z,12.23
2023-03-03T23:22:20.766Z,11.67
2023-03-03T23:24:47.983Z,10.87
2023-03-03T23:27:15.107Z,9.93
2023-03-03T23:29:42.259Z,11.60
2023-03-03T23:32:09.492Z,11.53
2023-03-03T23:34:36.657Z,11.30
2023-03-03T23:37:03.846Z,10.10
2023-03-03T23:39:31.057Z,13.00
2023-03-03T23:41:58.188Z,12.77
2023-03-03T23:44:25.442Z,11.20
2023-03-03T23:46:52.657Z,12.10
2023-03-03T23:49:19.927Z,12.20
2023-03-03T23:51:47.171Z,12.77
2023-03-03T23:54:14.316Z,11.77
2023-03-03T23:56:41.683Z,12.10
2023-03-03T23:59:08.872Z,13.00
